sensor_id;sensor_type;location;lat;lon;timestamp;P1;durP1;ratioP1;P2;durP2;ratioP2
34695;SDS011;20918;51.138;17.370;2023-06-04T00:00:13;7.80;;;3.90;;
34695;SDS011;20918;51.138;17.370;2023-06-04T00:03:17;11.10;;;3.60;;
34695;SDS011;20918;51.138;17.370;2023-06-04T00:06:18;11.70;;;3.90;;
34695;SDS011;20918;51.138;17.370;2023-06-04T00:09:18;7.60;;;3.70;;
34695;SDS011;20918;51.138;17.370;2023-06-04T00:12:19;8.80;;;4.00;;
34695;SDS011;20918;51.138;17.370;2023-06-04T00:18:23;8.00;;;3.60;;
34695;SDS011;20918;51.138;17.370;2023-06-04T00:21:26;7.00;;;3.50;;
34695;SDS011;20918;51.138;17.370;2023-06-04T00:24:26;5.30;;;3.40;;
34695;SDS011;20918;51.138;17.370;2023-06-04T00:27:27;6.30;;;3.90;;
34695;SDS011;20918;51.138;17.370;2023-06-04T00:30:27;6.20;;;3.70;;
34695;SDS011;20918;51.138;17.370;2023-06-04T00:33:30;8.40;;;4.10;;
34695;SDS011;20918;51.138;17.370;2023-06-04T00:36:31;8.00;;;3.70;;
34695;SDS011;20918;51.138;17.370;2023-06-04T00:39:32;9.00;;;3.90;;
34695;SDS011;20918;51.138;17.370;2023-06-04T00:42:35;9.00;;;4.20;;
34695;SDS011;20918;51.138;17.370;2023-06-04T00:45:35;12.00;;;4.10;;
34695;SDS011;20918;51.138;17.370;2023-06-04T00:48:36;5.60;;;3.70;;
34695;SDS011;20918;51.138;17.370;2023-06-04T00:51:37;8.30;;;3.90;;
34695;SDS011;20918;51.138;17.370;2023-06-04T00:54:38;6.00;;;4.20;;
34695;SDS011;20918;51.138;17.370;2023-06-04T00:57:39;8.00;;;3.90;;
34695;SDS011;20918;51.138;17.370;2023-06-04T01:00:39;11.20;;;3.80;;
34695;SDS011;20918;51.138;17.370;2023-06-04T01:03:41;10.00;;;4.00;;
34695;SDS011;20918;51.138;17.370;2023-06-04T01:06:47;15.40;;;4.60;;
34695;SDS011;20918;51.138;17.370;2023-06-04T01:09:51;9.30;;;4.30;;
34695;SDS011;20918;51.138;17.370;2023-06-04T01:12:52;7.20;;;4.60;;
34695;SDS011;20918;51.138;17.370;2023-06-04T01:15:52;9.90;;;4.20;;
34695;SDS011;20918;51.138;17.370;2023-06-04T01:18:53;9.50;;;4.40;;
34695;SDS011;20918;51.138;17.370;2023-06-04T01:22:01;6.60;;;4.30;;
34695;SDS011;20918;51.138;17.370;2023-06-04T01:25:05;13.30;;;4.20;;
34695;SDS011;20918;51.138;17.370;2023-06-04T01:28:32;9.60;;;4.40;;
34695;SDS011;20918;51.138;17.370;2023-06-04T01:31:34;9.70;;;4.40;;
34695;SDS011;20918;51.138;17.370;2023-06-04T01:34:45;9.00;;;4.20;;
34695;SDS011;20918;51.138;17.370;2023-06-04T01:37:47;9.10;;;4.10;;
34695;SDS011;20918;51.138;17.370;2023-06-04T01:40:48;8.40;;;4.00;;
34695;SDS011;20918;51.138;17.370;2023-06-04T01:43:50;6.20;;;3.70;;
34695;SDS011;20918;51.138;17.370;2023-06-04T01:46:51;6.60;;;4.20;;
34695;SDS011;20918;51.138;17.370;2023-06-04T01:49:52;8.60;;;4.00;;
34695;SDS011;20918;51.138;17.370;2023-06-04T01:52:53;8.90;;;4.10;;
34695;SDS011;20918;51.138;17.370;2023-06-04T01:55:54;8.20;;;4.00;;
34695;SDS011;20918;51.138;17.370;2023-06-04T01:58:54;7.80;;;4.30;;
34695;SDS011;20918;51.138;17.370;2023-06-04T02:01:57;7.60;;;3.70;;
34695;SDS011;20918;51.138;17.370;2023-06-04T02:04:58;8.00;;;3.70;;
34695;SDS011;20918;51.138;17.370;2023-06-04T02:08:00;8.00;;;4.20;;
34695;SDS011;20918;51.138;17.370;2023-06-04T02:11:02;10.30;;;4.40;;
34695;SDS011;20918;51.138;17.370;2023-06-04T02:14:02;9.50;;;4.10;;
34695;SDS011;20918;51.138;17.370;2023-06-04T02:17:05;11.40;;;4.60;;
34695;SDS011;20918;51.138;17.370;2023-06-04T02:20:12;10.20;;;4.20;;
34695;SDS011;20918;51.138;17.370;2023-06-04T02:23:16;6.70;;;4.30;;
34695;SDS011;20918;51.138;17.370;2023-06-04T02:26:18;10.10;;;4.10;;
34695;SDS011;20918;51.138;17.370;2023-06-04T02:29:22;9.40;;;4.10;;
34695;SDS011;20918;51.138;17.370;2023-06-04T02:32:23;10.30;;;4.40;;
34695;SDS011;20918;51.138;17.370;2023-06-04T02:35:23;7.60;;;4.60;;
34695;SDS011;20918;51.138;17.370;2023-06-04T02:38:25;7.50;;;4.00;;
34695;SDS011;20918;51.138;17.370;2023-06-04T02:41:25;8.30;;;4.40;;
34695;SDS011;20918;51.138;17.370;2023-06-04T02:44:26;9.50;;;3.80;;
34695;SDS011;20918;51.138;17.370;2023-06-04T02:47:29;6.60;;;4.00;;
34695;SDS011;20918;51.138;17.370;2023-06-04T02:50:30;8.70;;;4.30;;
34695;SDS011;20918;51.138;17.370;2023-06-04T02:53:31;7.70;;;4.00;;
34695;SDS011;20918;51.138;17.370;2023-06-04T02:56:34;9.10;;;4.40;;
34695;SDS011;20918;51.138;17.370;2023-06-04T02:59:36;6.40;;;4.40;;
34695;SDS011;20918;51.138;17.370;2023-06-04T03:02:37;6.20;;;3.90;;
34695;SDS011;20918;51.138;17.370;2023-06-04T03:05:50;6.40;;;4.50;;
34695;SDS011;20918;51.138;17.370;2023-06-04T03:08:52;6.30;;;3.50;;
34695;SDS011;20918;51.138;17.370;2023-06-04T03:14:54;7.80;;;4.10;;
34695;SDS011;20918;51.138;17.370;2023-06-04T03:17:54;7.90;;;3.90;;
34695;SDS011;20918;51.138;17.370;2023-06-04T03:20:55;6.10;;;3.90;;
34695;SDS011;20918;51.138;17.370;2023-06-04T03:23:56;8.00;;;3.90;;
34695;SDS011;20918;51.138;17.370;2023-06-04T03:26:57;6.60;;;4.10;;
34695;SDS011;20918;51.138;17.370;2023-06-04T03:33:02;11.00;;;4.40;;
34695;SDS011;20918;51.138;17.370;2023-06-04T03:39:04;6.90;;;3.10;;
34695;SDS011;20918;51.138;17.370;2023-06-04T03:42:05;5.70;;;3.40;;
34695;SDS011;20918;51.138;17.370;2023-06-04T03:45:08;4.90;;;3.00;;
34695;SDS011;20918;51.138;17.370;2023-06-04T03:48:09;6.90;;;4.00;;
34695;SDS011;20918;51.138;17.370;2023-06-04T03:51:11;7.00;;;4.00;;
34695;SDS011;20918;51.138;17.370;2023-06-04T03:54:12;8.40;;;4.00;;
34695;SDS011;20918;51.138;17.370;2023-06-04T03:57:17;8.10;;;4.30;;
34695;SDS011;20918;51.138;17.370;2023-06-04T04:00:17;7.60;;;4.20;;
34695;SDS011;20918;51.138;17.370;2023-06-04T04:03:21;5.60;;;3.60;;
34695;SDS011;20918;51.138;17.370;2023-06-04T04:06:22;12.00;;;3.70;;
34695;SDS011;20918;51.138;17.370;2023-06-04T04:09:23;6.10;;;4.30;;
34695;SDS011;20918;51.138;17.370;2023-06-04T04:12:24;7.50;;;4.50;;
34695;SDS011;20918;51.138;17.370;2023-06-04T04:15:25;5.70;;;3.70;;
34695;SDS011;20918;51.138;17.370;2023-06-04T04:18:26;8.30;;;3.80;;
34695;SDS011;20918;51.138;17.370;2023-06-04T04:21:26;8.30;;;4.20;;
34695;SDS011;20918;51.138;17.370;2023-06-04T04:24:27;7.50;;;4.30;;
34695;SDS011;20918;51.138;17.370;2023-06-04T04:27:31;7.70;;;4.60;;
34695;SDS011;20918;51.138;17.370;2023-06-04T04:30:34;9.90;;;5.50;;
34695;SDS011;20918;51.138;17.370;2023-06-04T04:33:36;10.70;;;5.50;;
34695;SDS011;20918;51.138;17.370;2023-06-04T04:36:40;13.70;;;5.90;;
34695;SDS011;20918;51.138;17.370;2023-06-04T04:39:42;13.80;;;6.60;;
34695;SDS011;20918;51.138;17.370;2023-06-04T04:42:43;10.00;;;5.30;;
34695;SDS011;20918;51.138;17.370;2023-06-04T04:45:47;13.70;;;6.50;;
34695;SDS011;20918;51.138;17.370;2023-06-04T04:48:50;11.70;;;5.90;;
34695;SDS011;20918;51.138;17.370;2023-06-04T04:51:54;12.60;;;6.10;;
34695;SDS011;20918;51.138;17.370;2023-06-04T04:57:58;7.10;;;4.40;;
34695;SDS011;20918;51.138;17.370;2023-06-04T05:01:01;10.00;;;4.60;;
34695;SDS011;20918;51.138;17.370;2023-06-04T05:04:02;7.20;;;4.00;;
34695;SDS011;20918;51.138;17.370;2023-06-04T05:07:05;6.80;;;3.90;;
34695;SDS011;20918;51.138;17.370;2023-06-04T05:10:09;5.90;;;3.90;;
34695;SDS011;20918;51.138;17.370;2023-06-04T05:13:13;5.40;;;3.70;;
34695;SDS011;20918;51.138;17.370;2023-06-04T05:16:23;6.50;;;4.10;;
34695;SDS011;20918;51.138;17.370;2023-06-04T05:19:26;5.90;;;4.10;;
34695;SDS011;20918;51.138;17.370;2023-06-04T05:22:29;8.80;;;3.80;;
34695;SDS011;20918;51.138;17.370;2023-06-04T05:25:33;7.90;;;4.20;;
34695;SDS011;20918;51.138;17.370;2023-06-04T05:28:35;6.40;;;3.40;;
34695;SDS011;20918;51.138;17.370;2023-06-04T05:31:38;9.30;;;3.50;;
34695;SDS011;20918;51.138;17.370;2023-06-04T05:34:43;6.90;;;3.50;;
34695;SDS011;20918;51.138;17.370;2023-06-04T05:37:44;6.00;;;3.40;;
34695;SDS011;20918;51.138;17.370;2023-06-04T05:40:46;5.60;;;3.40;;
34695;SDS011;20918;51.138;17.370;2023-06-04T05:43:52;4.90;;;2.90;;
34695;SDS011;20918;51.138;17.370;2023-06-04T05:46:56;4.10;;;2.90;;
34695;SDS011;20918;51.138;17.370;2023-06-04T05:50:02;6.30;;;3.00;;
34695;SDS011;20918;51.138;17.370;2023-06-04T05:53:10;4.30;;;3.10;;
34695;SDS011;20918;51.138;17.370;2023-06-04T05:56:11;6.30;;;3.40;;
34695;SDS011;20918;51.138;17.370;2023-06-04T05:59:12;4.70;;;3.30;;
34695;SDS011;20918;51.138;17.370;2023-06-04T06:02:16;5.70;;;3.20;;
34695;SDS011;20918;51.138;17.370;2023-06-04T06:05:20;5.30;;;3.00;;
34695;SDS011;20918;51.138;17.370;2023-06-04T06:08:26;6.00;;;3.40;;
34695;SDS011;20918;51.138;17.370;2023-06-04T06:11:27;4.20;;;3.00;;
34695;SDS011;20918;51.138;17.370;2023-06-04T06:14:31;5.80;;;3.00;;
34695;SDS011;20918;51.138;17.370;2023-06-04T06:17:37;6.50;;;3.10;;
34695;SDS011;20918;51.138;17.370;2023-06-04T06:20:41;4.20;;;3.00;;
34695;SDS011;20918;51.138;17.370;2023-06-04T06:23:45;7.10;;;3.50;;
34695;SDS011;20918;51.138;17.370;2023-06-04T06:26:46;4.20;;;2.60;;
34695;SDS011;20918;51.138;17.370;2023-06-04T06:29:53;5.30;;;3.00;;
34695;SDS011;20918;51.138;17.370;2023-06-04T06:32:57;8.80;;;2.90;;
34695;SDS011;20918;51.138;17.370;2023-06-04T06:36:05;5.80;;;3.00;;
34695;SDS011;20918;51.138;17.370;2023-06-04T06:39:08;7.00;;;3.20;;
34695;SDS011;20918;51.138;17.370;2023-06-04T06:42:11;6.40;;;3.30;;
34695;SDS011;20918;51.138;17.370;2023-06-04T06:45:19;5.80;;;3.10;;
34695;SDS011;20918;51.138;17.370;2023-06-04T06:51:36;8.00;;;2.90;;
34695;SDS011;20918;51.138;17.370;2023-06-04T06:54:38;4.80;;;3.00;;
34695;SDS011;20918;51.138;17.370;2023-06-04T06:57:39;8.60;;;3.00;;
34695;SDS011;20918;51.138;17.370;2023-06-04T07:00:42;4.80;;;2.90;;
34695;SDS011;20918;51.138;17.370;2023-06-04T07:03:46;5.10;;;3.30;;
34695;SDS011;20918;51.138;17.370;2023-06-04T07:06:46;4.10;;;2.90;;
34695;SDS011;20918;51.138;17.370;2023-06-04T07:09:50;9.00;;;2.80;;
34695;SDS011;20918;51.138;17.370;2023-06-04T07:12:54;6.70;;;3.20;;
34695;SDS011;20918;51.138;17.370;2023-06-04T07:15:55;5.00;;;3.00;;
34695;SDS011;20918;51.138;17.370;2023-06-04T07:19:00;7.70;;;3.10;;
34695;SDS011;20918;51.138;17.370;2023-06-04T07:22:03;6.10;;;2.50;;
34695;SDS011;20918;51.138;17.370;2023-06-04T07:25:09;7.50;;;2.50;;
34695;SDS011;20918;51.138;17.370;2023-06-04T07:28:10;4.40;;;2.70;;
34695;SDS011;20918;51.138;17.370;2023-06-04T07:31:33;4.10;;;2.70;;
34695;SDS011;20918;51.138;17.370;2023-06-04T07:34:34;5.10;;;2.70;;
34695;SDS011;20918;51.138;17.370;2023-06-04T07:37:35;5.70;;;2.80;;
34695;SDS011;20918;51.138;17.370;2023-06-04T07:40:35;5.00;;;2.80;;
34695;SDS011;20918;51.138;17.370;2023-06-04T07:43:36;5.30;;;2.70;;
34695;SDS011;20918;51.138;17.370;2023-06-04T07:46:37;5.70;;;2.40;;
34695;SDS011;20918;51.138;17.370;2023-06-04T07:49:38;4.20;;;2.30;;
34695;SDS011;20918;51.138;17.370;2023-06-04T07:52:41;4.70;;;2.30;;
34695;SDS011;20918;51.138;17.370;2023-06-04T07:55:43;4.10;;;2.40;;
34695;SDS011;20918;51.138;17.370;2023-06-04T07:58:46;5.30;;;2.70;;
34695;SDS011;20918;51.138;17.370;2023-06-04T08:01:50;4.00;;;2.60;;
34695;SDS011;20918;51.138;17.370;2023-06-04T08:04:54;4.30;;;2.30;;
34695;SDS011;20918;51.138;17.370;2023-06-04T08:07:54;4.30;;;2.30;;
34695;SDS011;20918;51.138;17.370;2023-06-04T08:10:55;4.10;;;2.10;;
34695;SDS011;20918;51.138;17.370;2023-06-04T08:13:56;2.20;;;1.70;;
34695;SDS011;20918;51.138;17.370;2023-06-04T08:16:59;3.70;;;1.70;;
34695;SDS011;20918;51.138;17.370;2023-06-04T08:19:59;5.00;;;1.90;;
34695;SDS011;20918;51.138;17.370;2023-06-04T08:23:06;3.80;;;1.60;;
34695;SDS011;20918;51.138;17.370;2023-06-04T08:26:07;3.40;;;1.80;;
34695;SDS011;20918;51.138;17.370;2023-06-04T08:29:11;4.50;;;1.70;;
34695;SDS011;20918;51.138;17.370;2023-06-04T08:32:16;4.30;;;2.00;;
34695;SDS011;20918;51.138;17.370;2023-06-04T08:35:20;1.80;;;1.60;;
34695;SDS011;20918;51.138;17.370;2023-06-04T08:38:23;3.10;;;1.80;;
34695;SDS011;20918;51.138;17.370;2023-06-04T08:44:32;3.60;;;2.00;;
34695;SDS011;20918;51.138;17.370;2023-06-04T08:47:36;3.20;;;1.80;;
34695;SDS011;20918;51.138;17.370;2023-06-04T08:50:47;2.80;;;1.80;;
34695;SDS011;20918;51.138;17.370;2023-06-04T08:53:51;1.90;;;1.50;;
34695;SDS011;20918;51.138;17.370;2023-06-04T08:56:55;4.70;;;2.00;;
34695;SDS011;20918;51.138;17.370;2023-06-04T08:59:56;3.70;;;1.50;;
34695;SDS011;20918;51.138;17.370;2023-06-04T09:02:57;3.70;;;1.60;;
34695;SDS011;20918;51.138;17.370;2023-06-04T09:05:58;3.80;;;1.70;;
34695;SDS011;20918;51.138;17.370;2023-06-04T09:09:03;8.40;;;2.10;;
34695;SDS011;20918;51.138;17.370;2023-06-04T09:12:10;2.10;;;1.50;;
34695;SDS011;20918;51.138;17.370;2023-06-04T09:15:12;4.50;;;1.90;;
34695;SDS011;20918;51.138;17.370;2023-06-04T09:18:15;2.70;;;1.60;;
34695;SDS011;20918;51.138;17.370;2023-06-04T09:21:16;2.70;;;2.00;;
34695;SDS011;20918;51.138;17.370;2023-06-04T09:24:17;1.90;;;1.70;;
34695;SDS011;20918;51.138;17.370;2023-06-04T09:27:21;3.90;;;1.70;;
34695;SDS011;20918;51.138;17.370;2023-06-04T09:30:23;2.80;;;2.00;;
34695;SDS011;20918;51.138;17.370;2023-06-04T09:33:24;3.60;;;2.30;;
34695;SDS011;20918;51.138;17.370;2023-06-04T09:36:29;3.40;;;1.50;;
34695;SDS011;20918;51.138;17.370;2023-06-04T09:39:31;4.50;;;1.50;;
34695;SDS011;20918;51.138;17.370;2023-06-04T09:42:41;3.20;;;1.50;;
34695;SDS011;20918;51.138;17.370;2023-06-04T09:45:45;4.50;;;1.60;;
34695;SDS011;20918;51.138;17.370;2023-06-04T09:48:46;3.00;;;1.70;;
34695;SDS011;20918;51.138;17.370;2023-06-04T09:51:47;4.40;;;1.70;;
34695;SDS011;20918;51.138;17.370;2023-06-04T09:54:49;4.20;;;1.80;;
34695;SDS011;20918;51.138;17.370;2023-06-04T09:57:50;4.90;;;2.00;;
34695;SDS011;20918;51.138;17.370;2023-06-04T10:00:52;3.40;;;1.60;;
34695;SDS011;20918;51.138;17.370;2023-06-04T10:03:54;3.00;;;1.60;;
34695;SDS011;20918;51.138;17.370;2023-06-04T10:06:56;1.50;;;1.30;;
34695;SDS011;20918;51.138;17.370;2023-06-04T10:09:58;3.50;;;1.70;;
34695;SDS011;20918;51.138;17.370;2023-06-04T10:13:00;3.50;;;1.70;;
34695;SDS011;20918;51.138;17.370;2023-06-04T10:16:08;4.90;;;1.30;;
34695;SDS011;20918;51.138;17.370;2023-06-04T10:19:11;1.90;;;1.50;;
34695;SDS011;20918;51.138;17.370;2023-06-04T10:22:12;1.90;;;1.60;;
34695;SDS011;20918;51.138;17.370;2023-06-04T10:25:13;2.00;;;1.50;;
34695;SDS011;20918;51.138;17.370;2023-06-04T10:28:15;2.40;;;1.80;;
34695;SDS011;20918;51.138;17.370;2023-06-04T10:31:20;3.20;;;1.80;;
34695;SDS011;20918;51.138;17.370;2023-06-04T10:34:21;2.00;;;1.50;;
34695;SDS011;20918;51.138;17.370;2023-06-04T10:37:23;2.20;;;2.00;;
34695;SDS011;20918;51.138;17.370;2023-06-04T10:40:34;4.10;;;1.80;;
34695;SDS011;20918;51.138;17.370;2023-06-04T10:43:36;4.70;;;1.80;;
34695;SDS011;20918;51.138;17.370;2023-06-04T10:46:38;3.10;;;1.60;;
34695;SDS011;20918;51.138;17.370;2023-06-04T10:49:40;2.50;;;1.60;;
34695;SDS011;20918;51.138;17.370;2023-06-04T10:52:59;6.20;;;2.00;;
34695;SDS011;20918;51.138;17.370;2023-06-04T10:56:05;3.40;;;1.80;;
34695;SDS011;20918;51.138;17.370;2023-06-04T10:59:16;3.40;;;1.80;;
34695;SDS011;20918;51.138;17.370;2023-06-04T11:02:18;2.40;;;1.90;;
34695;SDS011;20918;51.138;17.370;2023-06-04T11:05:19;2.30;;;1.70;;
34695;SDS011;20918;51.138;17.370;2023-06-04T11:08:29;2.00;;;1.60;;
34695;SDS011;20918;51.138;17.370;2023-06-04T11:11:31;3.10;;;1.70;;
34695;SDS011;20918;51.138;17.370;2023-06-04T11:14:32;6.10;;;1.90;;
34695;SDS011;20918;51.138;17.370;2023-06-04T11:17:33;4.20;;;1.90;;
34695;SDS011;20918;51.138;17.370;2023-06-04T11:20:34;2.80;;;1.50;;
34695;SDS011;20918;51.138;17.370;2023-06-04T11:23:34;5.60;;;1.80;;
34695;SDS011;20918;51.138;17.370;2023-06-04T11:26:36;2.80;;;1.80;;
34695;SDS011;20918;51.138;17.370;2023-06-04T11:29:37;5.80;;;1.90;;
34695;SDS011;20918;51.138;17.370;2023-06-04T11:32:38;2.90;;;1.80;;
34695;SDS011;20918;51.138;17.370;2023-06-04T11:35:42;4.10;;;2.10;;
34695;SDS011;20918;51.138;17.370;2023-06-04T11:38:44;2.30;;;1.80;;
34695;SDS011;20918;51.138;17.370;2023-06-04T11:41:57;3.90;;;1.90;;
34695;SDS011;20918;51.138;17.370;2023-06-04T11:44:59;2.30;;;1.50;;
34695;SDS011;20918;51.138;17.370;2023-06-04T11:48:01;2.20;;;1.50;;
34695;SDS011;20918;51.138;17.370;2023-06-04T11:51:07;1.80;;;1.40;;
34695;SDS011;20918;51.138;17.370;2023-06-04T11:54:11;6.70;;;2.10;;
34695;SDS011;20918;51.138;17.370;2023-06-04T11:57:12;20.80;;;15.50;;
34695;SDS011;20918;51.138;17.370;2023-06-04T12:00:14;3.40;;;2.10;;
34695;SDS011;20918;51.138;17.370;2023-06-04T12:03:18;2.20;;;1.50;;
34695;SDS011;20918;51.138;17.370;2023-06-04T12:06:19;5.60;;;1.90;;
34695;SDS011;20918;51.138;17.370;2023-06-04T12:09:23;4.40;;;1.80;;
34695;SDS011;20918;51.138;17.370;2023-06-04T12:12:27;3.80;;;1.90;;
34695;SDS011;20918;51.138;17.370;2023-06-04T12:15:28;4.30;;;1.90;;
34695;SDS011;20918;51.138;17.370;2023-06-04T12:18:28;2.70;;;1.80;;
34695;SDS011;20918;51.138;17.370;2023-06-04T12:21:29;2.00;;;1.50;;
34695;SDS011;20918;51.138;17.370;2023-06-04T12:24:30;5.30;;;1.70;;
34695;SDS011;20918;51.138;17.370;2023-06-04T12:27:35;2.40;;;1.50;;
34695;SDS011;20918;51.138;17.370;2023-06-04T12:30:36;3.10;;;1.70;;
34695;SDS011;20918;51.138;17.370;2023-06-04T12:33:37;4.10;;;3.10;;
34695;SDS011;20918;51.138;17.370;2023-06-04T12:36:38;5.90;;;2.00;;
34695;SDS011;20918;51.138;17.370;2023-06-04T12:39:43;4.10;;;1.50;;
34695;SDS011;20918;51.138;17.370;2023-06-04T12:42:43;5.00;;;2.70;;
34695;SDS011;20918;51.138;17.370;2023-06-04T12:45:44;4.50;;;2.20;;
34695;SDS011;20918;51.138;17.370;2023-06-04T12:48:45;3.00;;;1.80;;
34695;SDS011;20918;51.138;17.370;2023-06-04T12:51:46;2.30;;;1.60;;
34695;SDS011;20918;51.138;17.370;2023-06-04T12:54:47;7.60;;;2.60;;
34695;SDS011;20918;51.138;17.370;2023-06-04T12:57:48;2.00;;;1.80;;
34695;SDS011;20918;51.138;17.370;2023-06-04T13:00:49;4.90;;;1.90;;
34695;SDS011;20918;51.138;17.370;2023-06-04T13:03:49;3.20;;;1.90;;
34695;SDS011;20918;51.138;17.370;2023-06-04T13:06:50;2.20;;;1.80;;
34695;SDS011;20918;51.138;17.370;2023-06-04T13:09:58;5.70;;;1.60;;
34695;SDS011;20918;51.138;17.370;2023-06-04T13:13:00;2.60;;;1.80;;
34695;SDS011;20918;51.138;17.370;2023-06-04T13:16:01;3.90;;;1.90;;
34695;SDS011;20918;51.138;17.370;2023-06-04T13:19:02;5.00;;;2.10;;
34695;SDS011;20918;51.138;17.370;2023-06-04T13:22:04;5.10;;;2.10;;
34695;SDS011;20918;51.138;17.370;2023-06-04T13:25:04;3.00;;;2.00;;
34695;SDS011;20918;51.138;17.370;2023-06-04T13:28:05;2.50;;;2.00;;
34695;SDS011;20918;51.138;17.370;2023-06-04T13:31:06;5.90;;;2.10;;
34695;SDS011;20918;51.138;17.370;2023-06-04T13:34:09;2.00;;;1.60;;
34695;SDS011;20918;51.138;17.370;2023-06-04T13:37:10;2.70;;;1.70;;
34695;SDS011;20918;51.138;17.370;2023-06-04T13:40:11;2.60;;;1.90;;
34695;SDS011;20918;51.138;17.370;2023-06-04T13:43:13;9.80;;;2.90;;
34695;SDS011;20918;51.138;17.370;2023-06-04T13:46:18;11.80;;;5.50;;
34695;SDS011;20918;51.138;17.370;2023-06-04T13:49:21;5.60;;;1.90;;
34695;SDS011;20918;51.138;17.370;2023-06-04T13:52:22;4.80;;;3.00;;
34695;SDS011;20918;51.138;17.370;2023-06-04T13:55:23;2.30;;;1.50;;
34695;SDS011;20918;51.138;17.370;2023-06-04T13:58:24;6.50;;;1.90;;
34695;SDS011;20918;51.138;17.370;2023-06-04T14:01:28;2.20;;;1.60;;
34695;SDS011;20918;51.138;17.370;2023-06-04T14:04:32;2.20;;;2.00;;
34695;SDS011;20918;51.138;17.370;2023-06-04T14:07:33;2.10;;;1.60;;
34695;SDS011;20918;51.138;17.370;2023-06-04T14:10:37;2.10;;;1.80;;
34695;SDS011;20918;51.138;17.370;2023-06-04T14:13:43;4.10;;;1.80;;
34695;SDS011;20918;51.138;17.370;2023-06-04T14:16:45;1.70;;;1.50;;
34695;SDS011;20918;51.138;17.370;2023-06-04T14:19:46;3.70;;;1.70;;
34695;SDS011;20918;51.138;17.370;2023-06-04T14:22:52;2.70;;;1.60;;
34695;SDS011;20918;51.138;17.370;2023-06-04T14:25:55;2.80;;;1.60;;
34695;SDS011;20918;51.138;17.370;2023-06-04T14:28:56;3.60;;;2.40;;
34695;SDS011;20918;51.138;17.370;2023-06-04T14:32:02;3.80;;;2.40;;
34695;SDS011;20918;51.138;17.370;2023-06-04T14:35:04;4.30;;;2.10;;
34695;SDS011;20918;51.138;17.370;2023-06-04T14:38:08;2.30;;;2.00;;
34695;SDS011;20918;51.138;17.370;2023-06-04T14:41:12;3.40;;;2.10;;
34695;SDS011;20918;51.138;17.370;2023-06-04T14:44:13;2.70;;;1.70;;
34695;SDS011;20918;51.138;17.370;2023-06-04T14:47:17;1.80;;;1.60;;
34695;SDS011;20918;51.138;17.370;2023-06-04T14:50:17;4.00;;;1.80;;
34695;SDS011;20918;51.138;17.370;2023-06-04T14:53:19;2.10;;;1.90;;
34695;SDS011;20918;51.138;17.370;2023-06-04T14:56:20;3.00;;;1.80;;
34695;SDS011;20918;51.138;17.370;2023-06-04T14:59:23;8.80;;;2.40;;
34695;SDS011;20918;51.138;17.370;2023-06-04T15:02:23;3.00;;;1.90;;
34695;SDS011;20918;51.138;17.370;2023-06-04T15:05:36;3.70;;;2.70;;
34695;SDS011;20918;51.138;17.370;2023-06-04T15:08:37;2.40;;;1.80;;
34695;SDS011;20918;51.138;17.370;2023-06-04T15:11:38;1.50;;;1.40;;
34695;SDS011;20918;51.138;17.370;2023-06-04T15:14:39;1.90;;;1.70;;
34695;SDS011;20918;51.138;17.370;2023-06-04T15:17:45;1.50;;;1.30;;
34695;SDS011;20918;51.138;17.370;2023-06-04T15:20:52;4.50;;;1.60;;
34695;SDS011;20918;51.138;17.370;2023-06-04T15:23:58;2.70;;;1.60;;
34695;SDS011;20918;51.138;17.370;2023-06-04T15:27:02;3.90;;;1.60;;
34695;SDS011;20918;51.138;17.370;2023-06-04T15:30:06;5.40;;;1.80;;
34695;SDS011;20918;51.138;17.370;2023-06-04T15:33:13;3.10;;;1.60;;
34695;SDS011;20918;51.138;17.370;2023-06-04T15:36:21;2.70;;;1.90;;
34695;SDS011;20918;51.138;17.370;2023-06-04T15:39:30;2.10;;;1.80;;
34695;SDS011;20918;51.138;17.370;2023-06-04T15:42:36;2.30;;;1.70;;
34695;SDS011;20918;51.138;17.370;2023-06-04T15:45:39;2.60;;;1.70;;
34695;SDS011;20918;51.138;17.370;2023-06-04T15:48:40;4.60;;;2.50;;
34695;SDS011;20918;51.138;17.370;2023-06-04T15:51:45;3.20;;;1.90;;
34695;SDS011;20918;51.138;17.370;2023-06-04T15:54:46;2.70;;;1.80;;
34695;SDS011;20918;51.138;17.370;2023-06-04T15:57:52;4.00;;;2.30;;
34695;SDS011;20918;51.138;17.370;2023-06-04T16:00:56;4.00;;;2.70;;
34695;SDS011;20918;51.138;17.370;2023-06-04T16:03:59;2.10;;;1.70;;
34695;SDS011;20918;51.138;17.370;2023-06-04T16:07:05;3.00;;;1.70;;
34695;SDS011;20918;51.138;17.370;2023-06-04T16:10:08;4.00;;;1.80;;
34695;SDS011;20918;51.138;17.370;2023-06-04T16:13:17;4.10;;;1.50;;
34695;SDS011;20918;51.138;17.370;2023-06-04T16:16:18;4.00;;;2.10;;
34695;SDS011;20918;51.138;17.370;2023-06-04T16:19:21;3.90;;;1.50;;
34695;SDS011;20918;51.138;17.370;2023-06-04T16:22:22;3.80;;;1.50;;
34695;SDS011;20918;51.138;17.370;2023-06-04T16:25:23;3.90;;;1.60;;
34695;SDS011;20918;51.138;17.370;2023-06-04T16:28:27;2.00;;;1.70;;
34695;SDS011;20918;51.138;17.370;2023-06-04T16:31:29;3.40;;;2.00;;
34695;SDS011;20918;51.138;17.370;2023-06-04T16:34:30;2.80;;;1.40;;
34695;SDS011;20918;51.138;17.370;2023-06-04T16:37:35;4.60;;;1.40;;
34695;SDS011;20918;51.138;17.370;2023-06-04T16:40:39;7.40;;;2.00;;
34695;SDS011;20918;51.138;17.370;2023-06-04T16:43:39;2.00;;;1.50;;
34695;SDS011;20918;51.138;17.370;2023-06-04T16:46:41;8.60;;;1.90;;
34695;SDS011;20918;51.138;17.370;2023-06-04T16:49:41;1.80;;;1.50;;
34695;SDS011;20918;51.138;17.370;2023-06-04T16:52:45;2.20;;;1.60;;
34695;SDS011;20918;51.138;17.370;2023-06-04T16:55:52;2.10;;;1.70;;
34695;SDS011;20918;51.138;17.370;2023-06-04T16:58:55;1.70;;;1.40;;
34695;SDS011;20918;51.138;17.370;2023-06-04T17:01:57;3.30;;;1.50;;
34695;SDS011;20918;51.138;17.370;2023-06-04T17:05:01;4.30;;;1.90;;
34695;SDS011;20918;51.138;17.370;2023-06-04T17:08:01;1.40;;;1.30;;
34695;SDS011;20918;51.138;17.370;2023-06-04T17:11:02;8.10;;;2.30;;
34695;SDS011;20918;51.138;17.370;2023-06-04T17:14:06;5.40;;;1.50;;
34695;SDS011;20918;51.138;17.370;2023-06-04T17:17:07;6.10;;;1.40;;
34695;SDS011;20918;51.138;17.370;2023-06-04T17:20:08;3.00;;;1.30;;
34695;SDS011;20918;51.138;17.370;2023-06-04T17:23:22;4.20;;;1.40;;
34695;SDS011;20918;51.138;17.370;2023-06-04T17:26:23;1.90;;;1.50;;
34695;SDS011;20918;51.138;17.370;2023-06-04T17:29:29;6.00;;;1.80;;
34695;SDS011;20918;51.138;17.370;2023-06-04T17:32:32;4.10;;;1.50;;
34695;SDS011;20918;51.138;17.370;2023-06-04T17:35:35;3.70;;;1.40;;
34695;SDS011;20918;51.138;17.370;2023-06-04T17:38:41;5.00;;;1.70;;
34695;SDS011;20918;51.138;17.370;2023-06-04T17:41:43;17.60;;;2.40;;
34695;SDS011;20918;51.138;17.370;2023-06-04T17:44:52;11.10;;;1.90;;
34695;SDS011;20918;51.138;17.370;2023-06-04T17:47:52;2.60;;;1.80;;
34695;SDS011;20918;51.138;17.370;2023-06-04T17:51:00;3.00;;;1.90;;
34695;SDS011;20918;51.138;17.370;2023-06-04T17:54:06;3.90;;;1.90;;
34695;SDS011;20918;51.138;17.370;2023-06-04T17:57:08;3.10;;;1.90;;
34695;SDS011;20918;51.138;17.370;2023-06-04T18:00:11;3.00;;;1.60;;
34695;SDS011;20918;51.138;17.370;2023-06-04T18:03:13;11.50;;;2.00;;
34695;SDS011;20918;51.138;17.370;2023-06-04T18:06:13;6.20;;;1.90;;
34695;SDS011;20918;51.138;17.370;2023-06-04T18:09:16;2.50;;;1.50;;
34695;SDS011;20918;51.138;17.370;2023-06-04T18:12:20;4.20;;;1.50;;
34695;SDS011;20918;51.138;17.370;2023-06-04T18:15:23;2.90;;;1.50;;
34695;SDS011;20918;51.138;17.370;2023-06-04T18:18:27;3.30;;;1.40;;
34695;SDS011;20918;51.138;17.370;2023-06-04T18:21:33;3.30;;;2.00;;
34695;SDS011;20918;51.138;17.370;2023-06-04T18:24:36;4.50;;;1.50;;